sensor_id;sensor_type;location;lat;lon;timestamp;temperature;humidity
21495;DHT22;10909;53.590;10.054;2023-04-25T00:01:46;11.00;75.70
21495;DHT22;10909;53.590;10.054;2023-04-25T00:04:11;11.00;75.70
21495;DHT22;10909;53.590;10.054;2023-04-25T00:06:37;10.90;75.90
21495;DHT22;10909;53.590;10.054;2023-04-25T00:09:04;10.90;75.90
21495;DHT22;10909;53.590;10.054;2023-04-25T00:11:33;10.90;76.40
21495;DHT22;10909;53.590;10.054;2023-04-25T00:13:58;10.90;76.00
21495;DHT22;10909;53.590;10.054;2023-04-25T00:16:25;10.90;76.00
21495;DHT22;10909;53.590;10.054;2023-04-25T00:18:51;10.90;76.10
21495;DHT22;10909;53.590;10.054;2023-04-25T00:21:19;10.90;76.00
21495;DHT22;10909;53.590;10.054;2023-04-25T00:23:46;10.90;76.20
21495;DHT22;10909;53.590;10.054;2023-04-25T00:26:11;10.80;76.30
21495;DHT22;10909;53.590;10.054;2023-04-25T00:28:37;10.80;76.20
21495;DHT22;10909;53.590;10.054;2023-04-25T00:31:03;10.80;76.10
21495;DHT22;10909;53.590;10.054;2023-04-25T00:33:29;10.80;76.30
21495;DHT22;10909;53.590;10.054;2023-04-25T00:35:55;10.80;76.30
21495;DHT22;10909;53.590;10.054;2023-04-25T00:38:24;10.80;76.40
21495;DHT22;10909;53.590;10.054;2023-04-25T00:40:55;10.80;76.30
21495;DHT22;10909;53.590;10.054;2023-04-25T00:43:21;10.80;76.30
21495;DHT22;10909;53.590;10.054;2023-04-25T00:45:47;10.80;75.90
21495;DHT22;10909;53.590;10.054;2023-04-25T00:48:14;10.80;75.70
21495;DHT22;10909;53.590;10.054;2023-04-25T00:50:40;10.80;75.50
21495;DHT22;10909;53.590;10.054;2023-04-25T00:53:06;10.80;75.30
21495;DHT22;10909;53.590;10.054;2023-04-25T00:55:33;10.80;75.20
21495;DHT22;10909;53.590;10.054;2023-04-25T00:58:00;10.80;75.10
21495;DHT22;10909;53.590;10.054;2023-04-25T01:00:27;10.80;75.00
21495;DHT22;10909;53.590;10.054;2023-04-25T01:02:54;10.80;75.00
21495;DHT22;10909;53.590;10.054;2023-04-25T01:05:20;10.80;75.00
21495;DHT22;10909;53.590;10.054;2023-04-25T01:07:45;10.80;74.80
21495;DHT22;10909;53.590;10.054;2023-04-25T01:10:13;10.80;74.80
21495;DHT22;10909;53.590;10.054;2023-04-25T01:12:42;10.70;74.70
21495;DHT22;10909;53.590;10.054;2023-04-25T01:15:08;10.70;75.40
21495;DHT22;10909;53.590;10.054;2023-04-25T01:17:34;10.70;74.50
21495;DHT22;10909;53.590;10.054;2023-04-25T01:20:03;10.70;74.50
21495;DHT22;10909;53.590;10.054;2023-04-25T01:22:29;10.70;74.40
21495;DHT22;10909;53.590;10.054;2023-04-25T01:24:55;10.70;74.30
21495;DHT22;10909;53.590;10.054;2023-04-25T01:27:22;10.70;74.10
21495;DHT22;10909;53.590;10.054;2023-04-25T01:33:10;10.70;73.80
21495;DHT22;10909;53.590;10.054;2023-04-25T01:35:37;10.60;73.70
21495;DHT22;10909;53.590;10.054;2023-04-25T01:38:02;10.60;73.60
21495;DHT22;10909;53.590;10.054;2023-04-25T01:40:28;10.60;73.60
21495;DHT22;10909;53.590;10.054;2023-04-25T01:42:54;10.60;73.50
21495;DHT22;10909;53.590;10.054;2023-04-25T01:45:20;10.60;73.50
21495;DHT22;10909;53.590;10.054;2023-04-25T01:47:46;10.60;72.60
21495;DHT22;10909;53.590;10.054;2023-04-25T01:50:16;10.60;72.50
21495;DHT22;10909;53.590;10.054;2023-04-25T01:52:42;10.60;72.40
21495;DHT22;10909;53.590;10.054;2023-04-25T01:55:08;10.60;72.30
21495;DHT22;10909;53.590;10.054;2023-04-25T01:57:34;10.60;72.30
21495;DHT22;10909;53.590;10.054;2023-04-25T02:00:02;10.60;72.20
21495;DHT22;10909;53.590;10.054;2023-04-25T02:02:28;10.60;71.50
21495;DHT22;10909;53.590;10.054;2023-04-25T02:04:54;10.50;71.70
21495;DHT22;10909;53.590;10.054;2023-04-25T02:07:20;10.50;71.40
21495;DHT22;10909;53.590;10.054;2023-04-25T02:13:08;10.50;71.10
21495;DHT22;10909;53.590;10.054;2023-04-25T02:15:33;10.50;71.60
21495;DHT22;10909;53.590;10.054;2023-04-25T02:18:00;10.40;71.20
21495;DHT22;10909;53.590;10.054;2023-04-25T02:20:29;10.50;71.20
21495;DHT22;10909;53.590;10.054;2023-04-25T02:22:55;10.40;70.40
21495;DHT22;10909;53.590;10.054;2023-04-25T02:25:21;10.40;70.00
21495;DHT22;10909;53.590;10.054;2023-04-25T02:27:47;10.40;70.20
21495;DHT22;10909;53.590;10.054;2023-04-25T02:30:13;10.40;70.90
21495;DHT22;10909;53.590;10.054;2023-04-25T02:32:40;10.40;70.40
21495;DHT22;10909;53.590;10.054;2023-04-25T02:35:06;10.40;70.10
21495;DHT22;10909;53.590;10.054;2023-04-25T02:37:33;10.40;70.40
21495;DHT22;10909;53.590;10.054;2023-04-25T02:40:02;10.40;70.50
21495;DHT22;10909;53.590;10.054;2023-04-25T02:42:31;10.40;70.00
21495;DHT22;10909;53.590;10.054;2023-04-25T02:44:56;10.30;69.80
21495;DHT22;10909;53.590;10.054;2023-04-25T02:47:22;10.40;70.40
21495;DHT22;10909;53.590;10.054;2023-04-25T02:49:47;10.30;70.10
21495;DHT22;10909;53.590;10.054;2023-04-25T02:52:13;10.30;70.20
21495;DHT22;10909;53.590;10.054;2023-04-25T02:54:40;10.30;70.30
21495;DHT22;10909;53.590;10.054;2023-04-25T02:57:06;10.30;70.90
21495;DHT22;10909;53.590;10.054;2023-04-25T02:59:32;10.30;69.50
21495;DHT22;10909;53.590;10.054;2023-04-25T03:01:58;10.30;69.10
21495;DHT22;10909;53.590;10.054;2023-04-25T03:04:24;10.30;69.70
21495;DHT22;10909;53.590;10.054;2023-04-25T03:06:53;10.30;69.60
21495;DHT22;10909;53.590;10.054;2023-04-25T03:09:24;10.30;69.70
21495;DHT22;10909;53.590;10.054;2023-04-25T03:11:54;10.20;69.90
21495;DHT22;10909;53.590;10.054;2023-04-25T03:14:19;10.20;68.40
21495;DHT22;10909;53.590;10.054;2023-04-25T03:16:45;10.20;69.50
21495;DHT22;10909;53.590;10.054;2023-04-25T03:19:11;10.10;69.30
21495;DHT22;10909;53.590;10.054;2023-04-25T03:21:37;10.10;69.50
21495;DHT22;10909;53.590;10.054;2023-04-25T03:24:04;10.10;69.50
21495;DHT22;10909;53.590;10.054;2023-04-25T03:26:30;10.00;68.80
21495;DHT22;10909;53.590;10.054;2023-04-25T03:28:56;10.00;68.50
21495;DHT22;10909;53.590;10.054;2023-04-25T03:31:21;10.00;68.20
21495;DHT22;10909;53.590;10.054;2023-04-25T03:33:47;10.00;69.10
21495;DHT22;10909;53.590;10.054;2023-04-25T03:36:13;9.90;68.70
21495;DHT22;10909;53.590;10.054;2023-04-25T03:38:39;9.90;68.60
21495;DHT22;10909;53.590;10.054;2023-04-25T03:41:06;9.80;68.10
21495;DHT22;10909;53.590;10.054;2023-04-25T03:43:32;9.80;66.80
21495;DHT22;10909;53.590;10.054;2023-04-25T03:45:58;9.80;67.40
21495;DHT22;10909;53.590;10.054;2023-04-25T03:48:25;9.70;67.50
21495;DHT22;10909;53.590;10.054;2023-04-25T03:50:52;9.70;67.10
21495;DHT22;10909;53.590;10.054;2023-04-25T03:53:20;9.70;66.10
21495;DHT22;10909;53.590;10.054;2023-04-25T03:55:47;9.60;66.70
21495;DHT22;10909;53.590;10.054;2023-04-25T04:00:49;9.60;67.00
21495;DHT22;10909;53.590;10.054;2023-04-25T04:03:15;9.60;67.30
21495;DHT22;10909;53.590;10.054;2023-04-25T04:05:41;9.60;66.40
21495;DHT22;10909;53.590;10.054;2023-04-25T04:08:06;9.60;66.80
21495;DHT22;10909;53.590;10.054;2023-04-25T04:10:32;9.60;67.20
21495;DHT22;10909;53.590;10.054;2023-04-25T04:12:58;9.60;67.20
21495;DHT22;10909;53.590;10.054;2023-04-25T04:15:24;9.60;66.30
21495;DHT22;10909;53.590;10.054;2023-04-25T04:17:52;9.60;66.30
21495;DHT22;10909;53.590;10.054;2023-04-25T04:20:19;9.50;66.70
21495;DHT22;10909;53.590;10.054;2023-04-25T04:22:46;9.50;66.20
21495;DHT22;10909;53.590;10.054;2023-04-25T04:25:14;9.50;66.10
21495;DHT22;10909;53.590;10.054;2023-04-25T04:27:42;9.50;66.50
21495;DHT22;10909;53.590;10.054;2023-04-25T04:30:11;9.50;66.30
21495;DHT22;10909;53.590;10.054;2023-04-25T04:32:37;9.40;66.30
21495;DHT22;10909;53.590;10.054;2023-04-25T04:35:04;9.40;65.30
21495;DHT22;10909;53.590;10.054;2023-04-25T04:37:30;9.40;65.90
21495;DHT22;10909;53.590;10.054;2023-04-25T04:39:56;9.40;66.10
21495;DHT22;10909;53.590;10.054;2023-04-25T04:42:22;9.40;66.50
21495;DHT22;10909;53.590;10.054;2023-04-25T04:44:49;9.40;65.80
21495;DHT22;10909;53.590;10.054;2023-04-25T04:47:15;9.40;64.90
21495;DHT22;10909;53.590;10.054;2023-04-25T04:49:41;9.40;64.50
21495;DHT22;10909;53.590;10.054;2023-04-25T04:52:09;9.40;65.40
21495;DHT22;10909;53.590;10.054;2023-04-25T04:54:35;9.40;65.50
21495;DHT22;10909;53.590;10.054;2023-04-25T04:57:01;9.40;64.80
21495;DHT22;10909;53.590;10.054;2023-04-25T04:59:27;9.50;65.00
21495;DHT22;10909;53.590;10.054;2023-04-25T05:01:53;9.50;65.10
21495;DHT22;10909;53.590;10.054;2023-04-25T05:04:18;9.50;64.80
21495;DHT22;10909;53.590;10.054;2023-04-25T05:06:44;9.50;65.00
21495;DHT22;10909;53.590;10.054;2023-04-25T05:09:10;9.50;65.50
21495;DHT22;10909;53.590;10.054;2023-04-25T05:11:35;9.60;65.10
21495;DHT22;10909;53.590;10.054;2023-04-25T05:14:01;9.60;65.30
21495;DHT22;10909;53.590;10.054;2023-04-25T05:16:33;9.60;64.90
21495;DHT22;10909;53.590;10.054;2023-04-25T05:19:02;9.60;65.00
21495;DHT22;10909;53.590;10.054;2023-04-25T05:21:31;9.60;64.30
21495;DHT22;10909;53.590;10.054;2023-04-25T05:24:08;9.60;64.20
21495;DHT22;10909;53.590;10.054;2023-04-25T05:26:35;9.60;63.90
21495;DHT22;10909;53.590;10.054;2023-04-25T05:29:06;9.60;65.10
21495;DHT22;10909;53.590;10.054;2023-04-25T05:31:36;9.60;65.20
21495;DHT22;10909;53.590;10.054;2023-04-25T05:36:35;9.50;66.80
21495;DHT22;10909;53.590;10.054;2023-04-25T05:39:01;9.50;66.80
21495;DHT22;10909;53.590;10.054;2023-04-25T05:41:29;9.50;67.00
21495;DHT22;10909;53.590;10.054;2023-04-25T05:43:56;9.50;67.00
21495;DHT22;10909;53.590;10.054;2023-04-25T05:46:24;9.60;67.80
21495;DHT22;10909;53.590;10.054;2023-04-25T05:48:50;9.60;68.20
21495;DHT22;10909;53.590;10.054;2023-04-25T05:51:15;9.60;68.20
21495;DHT22;10909;53.590;10.054;2023-04-25T05:53:41;9.70;67.80
21495;DHT22;10909;53.590;10.054;2023-04-25T05:56:08;9.70;67.60
21495;DHT22;10909;53.590;10.054;2023-04-25T05:58:34;9.70;67.50
21495;DHT22;10909;53.590;10.054;2023-04-25T06:01:01;9.80;67.70
21495;DHT22;10909;53.590;10.054;2023-04-25T06:03:32;9.80;68.10
21495;DHT22;10909;53.590;10.054;2023-04-25T06:05:58;9.90;68.00
21495;DHT22;10909;53.590;10.054;2023-04-25T06:08:23;9.90;65.30
21495;DHT22;10909;53.590;10.054;2023-04-25T06:10:49;9.90;65.80
21495;DHT22;10909;53.590;10.054;2023-04-25T06:13:15;10.00;66.50
21495;DHT22;10909;53.590;10.054;2023-04-25T06:15:40;10.00;65.00
21495;DHT22;10909;53.590;10.054;2023-04-25T06:18:06;10.10;65.10
21495;DHT22;10909;53.590;10.054;2023-04-25T06:20:32;10.00;66.10
21495;DHT22;10909;53.590;10.054;2023-04-25T06:22:58;10.10;65.60
21495;DHT22;10909;53.590;10.054;2023-04-25T06:25:23;10.10;64.80
21495;DHT22;10909;53.590;10.054;2023-04-25T06:27:49;10.10;65.80
21495;DHT22;10909;53.590;10.054;2023-04-25T06:30:15;10.10;65.80
21495;DHT22;10909;53.590;10.054;2023-04-25T06:32:43;10.20;66.20
21495;DHT22;10909;53.590;10.054;2023-04-25T06:35:10;10.10;64.70
21495;DHT22;10909;53.590;10.054;2023-04-25T06:37:36;10.10;65.40
21495;DHT22;10909;53.590;10.054;2023-04-25T06:40:01;10.10;65.70
21495;DHT22;10909;53.590;10.054;2023-04-25T06:42:27;10.10;65.10
21495;DHT22;10909;53.590;10.054;2023-04-25T06:44:53;10.10;65.60
21495;DHT22;10909;53.590;10.054;2023-04-25T06:47:20;10.10;65.80
21495;DHT22;10909;53.590;10.054;2023-04-25T06:49:48;10.20;66.40
21495;DHT22;10909;53.590;10.054;2023-04-25T06:52:20;10.10;66.10
21495;DHT22;10909;53.590;10.054;2023-04-25T06:54:47;10.20;66.80
21495;DHT22;10909;53.590;10.054;2023-04-25T06:57:13;10.20;66.10
21495;DHT22;10909;53.590;10.054;2023-04-25T06:59:39;10.30;67.00
21495;DHT22;10909;53.590;10.054;2023-04-25T07:02:05;10.30;67.20
21495;DHT22;10909;53.590;10.054;2023-04-25T07:04:34;10.40;66.70
21495;DHT22;10909;53.590;10.054;2023-04-25T07:06:59;10.40;66.00
21495;DHT22;10909;53.590;10.054;2023-04-25T07:09:28;10.40;66.20
21495;DHT22;10909;53.590;10.054;2023-04-25T07:11:53;10.50;65.70
21495;DHT22;10909;53.590;10.054;2023-04-25T07:14:19;10.50;66.60
21495;DHT22;10909;53.590;10.054;2023-04-25T07:16:45;10.60;67.20
21495;DHT22;10909;53.590;10.054;2023-04-25T07:19:12;10.60;66.10
21495;DHT22;10909;53.590;10.054;2023-04-25T07:21:39;10.60;63.20
21495;DHT22;10909;53.590;10.054;2023-04-25T07:24:06;10.60;64.50
21495;DHT22;10909;53.590;10.054;2023-04-25T07:26:31;10.60;64.70
21495;DHT22;10909;53.590;10.054;2023-04-25T07:28:57;10.60;64.30
21495;DHT22;10909;53.590;10.054;2023-04-25T07:31:23;10.60;65.00
21495;DHT22;10909;53.590;10.054;2023-04-25T07:33:52;10.60;65.50
21495;DHT22;10909;53.590;10.054;2023-04-25T07:36:21;10.60;66.20
21495;DHT22;10909;53.590;10.054;2023-04-25T07:38:56;10.70;67.00
21495;DHT22;10909;53.590;10.054;2023-04-25T07:41:24;10.70;66.90
21495;DHT22;10909;53.590;10.054;2023-04-25T07:43:50;10.80;66.60
21495;DHT22;10909;53.590;10.054;2023-04-25T07:46:21;10.80;66.50
21495;DHT22;10909;53.590;10.054;2023-04-25T07:48:46;10.80;65.30
21495;DHT22;10909;53.590;10.054;2023-04-25T07:51:12;10.80;65.00
21495;DHT22;10909;53.590;10.054;2023-04-25T07:53:39;10.80;65.80
21495;DHT22;10909;53.590;10.054;2023-04-25T07:56:05;10.80;66.00
21495;DHT22;10909;53.590;10.054;2023-04-25T07:58:30;10.80;65.30
21495;DHT22;10909;53.590;10.054;2023-04-25T08:01:01;10.80;64.50
21495;DHT22;10909;53.590;10.054;2023-04-25T08:03:30;10.80;65.20
21495;DHT22;10909;53.590;10.054;2023-04-25T08:06:08;11.00;65.70
21495;DHT22;10909;53.590;10.054;2023-04-25T08:08:39;10.90;66.50
21495;DHT22;10909;53.590;10.054;2023-04-25T08:11:10;11.00;65.20
21495;DHT22;10909;53.590;10.054;2023-04-25T08:13:38;11.00;64.10
21495;DHT22;10909;53.590;10.054;2023-04-25T08:16:12;11.10;65.40
21495;DHT22;10909;53.590;10.054;2023-04-25T08:18:42;11.20;65.10
21495;DHT22;10909;53.590;10.054;2023-04-25T08:23:41;11.20;66.40
21495;DHT22;10909;53.590;10.054;2023-04-25T08:26:11;11.10;65.60
21495;DHT22;10909;53.590;10.054;2023-04-25T08:28:40;11.30;66.70
21495;DHT22;10909;53.590;10.054;2023-04-25T08:31:05;11.30;67.00
21495;DHT22;10909;53.590;10.054;2023-04-25T08:33:31;11.30;66.90
21495;DHT22;10909;53.590;10.054;2023-04-25T08:35:58;11.30;66.90
21495;DHT22;10909;53.590;10.054;2023-04-25T08:38:26;11.40;67.20
21495;DHT22;10909;53.590;10.054;2023-04-25T08:40:54;11.30;66.80
21495;DHT22;10909;53.590;10.054;2023-04-25T08:43:23;11.40;65.80
21495;DHT22;10909;53.590;10.054;2023-04-25T08:45:49;11.40;65.60
21495;DHT22;10909;53.590;10.054;2023-04-25T08:48:19;11.50;66.50
21495;DHT22;10909;53.590;10.054;2023-04-25T08:50:53;11.50;65.80
21495;DHT22;10909;53.590;10.054;2023-04-25T08:53:28;11.50;66.10
21495;DHT22;10909;53.590;10.054;2023-04-25T08:55:55;11.40;66.50
21495;DHT22;10909;53.590;10.054;2023-04-25T08:58:22;11.40;66.50
21495;DHT22;10909;53.590;10.054;2023-04-25T09:00:48;11.40;66.70
21495;DHT22;10909;53.590;10.054;2023-04-25T09:03:16;11.40;66.90
21495;DHT22;10909;53.590;10.054;2023-04-25T09:05:41;11.40;67.60
21495;DHT22;10909;53.590;10.054;2023-04-25T09:08:07;11.40;65.00
21495;DHT22;10909;53.590;10.054;2023-04-25T09:10:34;11.40;63.70
21495;DHT22;10909;53.590;10.054;2023-04-25T09:13:03;11.40;64.30
21495;DHT22;10909;53.590;10.054;2023-04-25T09:15:30;11.40;62.80
21495;DHT22;10909;53.590;10.054;2023-04-25T09:17:56;11.40;62.60
21495;DHT22;10909;53.590;10.054;2023-04-25T09:20:27;11.40;63.40
21495;DHT22;10909;53.590;10.054;2023-04-25T09:23:02;11.50;64.40
21495;DHT22;10909;53.590;10.054;2023-04-25T09:25:37;11.40;61.00
21495;DHT22;10909;53.590;10.054;2023-04-25T09:28:06;11.40;63.20
21495;DHT22;10909;53.590;10.054;2023-04-25T09:30:36;11.40;64.80
21495;DHT22;10909;53.590;10.054;2023-04-25T09:33:06;11.50;65.40
21495;DHT22;10909;53.590;10.054;2023-04-25T09:35:37;11.50;65.10
21495;DHT22;10909;53.590;10.054;2023-04-25T09:38:14;11.40;62.00
21495;DHT22;10909;53.590;10.054;2023-04-25T09:40:44;11.60;58.70
21495;DHT22;10909;53.590;10.054;2023-04-25T09:43:22;11.60;63.60
21495;DHT22;10909;53.590;10.054;2023-04-25T09:45:48;11.60;64.40
21495;DHT22;10909;53.590;10.054;2023-04-25T09:50:45;11.30;63.40
21495;DHT22;10909;53.590;10.054;2023-04-25T09:53:12;11.00;62.80
21495;DHT22;10909;53.590;10.054;2023-04-25T09:55:40;10.80;63.90
21495;DHT22;10909;53.590;10.054;2023-04-25T09:58:06;10.60;64.70
21495;DHT22;10909;53.590;10.054;2023-04-25T10:00:33;10.40;65.70
21495;DHT22;10909;53.590;10.054;2023-04-25T10:03:01;10.30;66.60
21495;DHT22;10909;53.590;10.054;2023-04-25T10:05:32;10.20;67.40
21495;DHT22;10909;53.590;10.054;2023-04-25T10:08:03;10.20;67.20
21495;DHT22;10909;53.590;10.054;2023-04-25T10:10:32;10.30;67.40
21495;DHT22;10909;53.590;10.054;2023-04-25T10:13:05;10.20;67.30
21495;DHT22;10909;53.590;10.054;2023-04-25T10:15:35;10.30;67.30
21495;DHT22;10909;53.590;10.054;2023-04-25T10:18:06;10.40;67.30
21495;DHT22;10909;53.590;10.054;2023-04-25T10:20:32;10.50;67.30
21495;DHT22;10909;53.590;10.054;2023-04-25T10:23:06;10.60;65.60
21495;DHT22;10909;53.590;10.054;2023-04-25T10:25:36;10.70;63.70
21495;DHT22;10909;53.590;10.054;2023-04-25T10:28:03;10.80;65.30
21495;DHT22;10909;53.590;10.054;2023-04-25T10:30:29;11.00;65.00
21495;DHT22;10909;53.590;10.054;2023-04-25T10:32:56;11.10;62.30
21495;DHT22;10909;53.590;10.054;2023-04-25T10:35:29;11.20;59.10
21495;DHT22;10909;53.590;10.054;2023-04-25T10:38:10;11.20;60.50
21495;DHT22;10909;53.590;10.054;2023-04-25T10:40:38;11.20;60.70
21495;DHT22;10909;53.590;10.054;2023-04-25T10:46:03;11.40;62.00
21495;DHT22;10909;53.590;10.054;2023-04-25T10:48:37;11.40;59.60
21495;DHT22;10909;53.590;10.054;2023-04-25T10:51:29;11.50;60.80
21495;DHT22;10909;53.590;10.054;2023-04-25T10:56:42;11.70;60.50
21495;DHT22;10909;53.590;10.054;2023-04-25T10:59:20;11.80;63.20
21495;DHT22;10909;53.590;10.054;2023-04-25T11:01:55;12.00;61.80
21495;DHT22;10909;53.590;10.054;2023-04-25T11:04:23;12.10;59.50
21495;DHT22;10909;53.590;10.054;2023-04-25T11:09:36;12.20;59.70
21495;DHT22;10909;53.590;10.054;2023-04-25T11:12:04;12.20;60.90
21495;DHT22;10909;53.590;10.054;2023-04-25T11:14:39;12.30;58.50
21495;DHT22;10909;53.590;10.054;2023-04-25T11:17:12;12.30;56.50
21495;DHT22;10909;53.590;10.054;2023-04-25T11:19:38;12.30;58.00
21495;DHT22;10909;53.590;10.054;2023-04-25T11:22:04;12.40;59.30
21495;DHT22;10909;53.590;10.054;2023-04-25T11:24:34;12.40;59.30
21495;DHT22;10909;53.590;10.054;2023-04-25T11:27:06;12.40;59.70
21495;DHT22;10909;53.590;10.054;2023-04-25T11:29:36;12.40;59.80
21495;DHT22;10909;53.590;10.054;2023-04-25T11:32:10;12.30;59.70
21495;DHT22;10909;53.590;10.054;2023-04-25T11:34:35;12.30;61.00
21495;DHT22;10909;53.590;10.054;2023-04-25T11:37:02;12.30;60.00
21495;DHT22;10909;53.590;10.054;2023-04-25T11:39:30;12.30;61.90
21495;DHT22;10909;53.590;10.054;2023-04-25T11:41:58;12.30;58.60
21495;DHT22;10909;53.590;10.054;2023-04-25T11:44:29;12.20;58.40
21495;DHT22;10909;53.590;10.054;2023-04-25T11:46:55;12.20;59.30
21495;DHT22;10909;53.590;10.054;2023-04-25T11:49:21;12.20;58.90
21495;DHT22;10909;53.590;10.054;2023-04-25T11:51:48;12.20;58.40
21495;DHT22;10909;53.590;10.054;2023-04-25T11:54:14;12.20;57.50
21495;DHT22;10909;53.590;10.054;2023-04-25T11:56:46;12.20;57.00
21495;DHT22;10909;53.590;10.054;2023-04-25T11:59:22;12.40;58.60
21495;DHT22;10909;53.590;10.054;2023-04-25T12:01:50;12.30;58.30
21495;DHT22;10909;53.590;10.054;2023-04-25T12:04:17;12.40;58.70
21495;DHT22;10909;53.590;10.054;2023-04-25T12:06:52;12.40;58.80
21495;DHT22;10909;53.590;10.054;2023-04-25T12:09:27;12.50;57.00
21495;DHT22;10909;53.590;10.054;2023-04-25T12:11:57;12.50;56.60
21495;DHT22;10909;53.590;10.054;2023-04-25T12:16:54;12.60;57.20
21495;DHT22;10909;53.590;10.054;2023-04-25T12:19:26;12.60;58.40
21495;DHT22;10909;53.590;10.054;2023-04-25T12:22:01;12.70;57.20
21495;DHT22;10909;53.590;10.054;2023-04-25T12:24:28;12.80;57.00
21495;DHT22;10909;53.590;10.054;2023-04-25T12:27:07;12.80;56.50
21495;DHT22;10909;53.590;10.054;2023-04-25T12:29:36;12.90;54.80
21495;DHT22;10909;53.590;10.054;2023-04-25T12:32:02;12.90;56.60
21495;DHT22;10909;53.590;10.054;2023-04-25T12:34:31;13.00;58.40
21495;DHT22;10909;53.590;10.054;2023-04-25T12:37:03;13.10;56.60
21495;DHT22;10909;53.590;10.054;2023-04-25T12:39:35;13.30;57.50
21495;DHT22;10909;53.590;10.054;2023-04-25T12:42:11;13.50;54.50
21495;DHT22;10909;53.590;10.054;2023-04-25T12:44:44;13.80;56.60
21495;DHT22;10909;53.590;10.054;2023-04-25T12:47:28;14.10;57.30
21495;DHT22;10909;53.590;10.054;2023-04-25T12:50:10;14.50;57.20
21495;DHT22;10909;53.590;10.054;2023-04-25T12:52:38;14.80;54.60
21495;DHT22;10909;53.590;10.054;2023-04-25T12:55:05;15.10;54.30
21495;DHT22;10909;53.590;10.054;2023-04-25T12:57:38;15.20;52.80
21495;DHT22;10909;53.590;10.054;2023-04-25T13:00:10;15.30;51.20
21495;DHT22;10909;53.590;10.054;2023-04-25T13:02:42;15.10;54.40
21495;DHT22;10909;53.590;10.054;2023-04-25T13:05:15;14.90;52.50
21495;DHT22;10909;53.590;10.054;2023-04-25T13:07:57;14.80;50.30
21495;DHT22;10909;53.590;10.054;2023-04-25T13:10:37;14.70;53.10
21495;DHT22;10909;53.590;10.054;2023-04-25T13:13:05;14.80;55.90
21495;DHT22;10909;53.590;10.054;2023-04-25T13:15:43;15.00;56.20
21495;DHT22;10909;53.590;10.054;2023-04-25T13:18:11;15.30;54.90
21495;DHT22;10909;53.590;10.054;2023-04-25T13:20:46;15.50;51.10
21495;DHT22;10909;53.590;10.054;2023-04-25T13:23:14;15.80;56.50
21495;DHT22;10909;53.590;10.054;2023-04-25T13:25:40;16.00;53.40
21495;DHT22;10909;53.590;10.054;2023-04-25T13:28:13;16.00;52.50
21495;DHT22;10909;53.590;10.054;2023-04-25T13:30:40;15.70;53.30
21495;DHT22;10909;53.590;10.054;2023-04-25T13:33:15;15.40;53.50
21495;DHT22;10909;53.590;10.054;2023-04-25T13:35:42;15.00;51.70
21495;DHT22;10909;53.590;10.054;2023-04-25T13:38:12;14.60;52.90
21495;DHT22;10909;53.590;10.054;2023-04-25T13:40:45;14.40;54.90
21495;DHT22;10909;53.590;10.054;2023-04-25T13:43:11;14.50;57.70
21495;DHT22;10909;53.590;10.054;2023-04-25T13:45:36;14.70;59.10
21495;DHT22;10909;53.590;10.054;2023-04-25T13:48:02;15.10;56.70
21495;DHT22;10909;53.590;10.054;2023-04-25T13:50:28;15.40;56.20
21495;DHT22;10909;53.590;10.054;2023-04-25T13:52:54;15.50;56.60
21495;DHT22;10909;53.590;10.054;2023-04-25T13:55:20;15.30;55.10
21495;DHT22;10909;53.590;10.054;2023-04-25T13:57:45;14.90;53.90
21495;DHT22;10909;53.590;10.054;2023-04-25T14:00:12;14.70;53.40
21495;DHT22;10909;53.590;10.054;2023-04-25T14:02:40;14.40;53.30
21495;DHT22;10909;53.590;10.054;2023-04-25T14:05:06;14.00;53.30
21495;DHT22;10909;53.590;10.054;2023-04-25T14:07:34;13.70;54.20
21495;DHT22;10909;53.590;10.054;2023-04-25T14:10:03;13.40;54.90
21495;DHT22;10909;53.590;10.054;2023-04-25T14:12:36;13.20;55.00
21495;DHT22;10909;53.590;10.054;2023-04-25T14:15:02;13.00;55.30
21495;DHT22;10909;53.590;10.054;2023-04-25T14:17:28;12.90;55.80
21495;DHT22;10909;53.590;10.054;2023-04-25T14:19:56;12.90;56.10
21495;DHT22;10909;53.590;10.054;2023-04-25T14:22:22;13.00;56.90
21495;DHT22;10909;53.590;10.054;2023-04-25T14:24:47;13.30;59.30
21495;DHT22;10909;53.590;10.054;2023-04-25T14:27:19;13.70;58.00
21495;DHT22;10909;53.590;10.054;2023-04-25T14:29:46;14.20;59.80
21495;DHT22;10909;53.590;10.054;2023-04-25T14:32:14;14.80;60.30
21495;DHT22;10909;53.590;10.054;2023-04-25T14:34:42;15.40;59.10
21495;DHT22;10909;53.590;10.054;2023-04-25T14:37:16;15.90;59.70
21495;DHT22;10909;53.590;10.054;2023-04-25T14:39:44;16.30;56.00
21495;DHT22;10909;53.590;10.054;2023-04-25T14:42:11;16.50;54.60
21495;DHT22;10909;53.590;10.054;2023-04-25T14:44:41;16.80;51.90
21495;DHT22;10909;53.590;10.054;2023-04-25T14:47:07;16.90;51.60
21495;DHT22;10909;53.590;10.054;2023-04-25T14:49:33;17.00;52.80
21495;DHT22;10909;53.590;10.054;2023-04-25T14:52:03;17.10;48.70
21495;DHT22;10909;53.590;10.054;2023-04-25T14:54:30;17.10;49.20
21495;DHT22;10909;53.590;10.054;2023-04-25T14:56:56;17.10;50.10
21495;DHT22;10909;53.590;10.054;2023-04-25T14:59:24;17.10;49.60
21495;DHT22;10909;53.590;10.054;2023-04-25T15:04:20;17.10;47.10
21495;DHT22;10909;53.590;10.054;2023-04-25T15:09:21;16.70;44.70
21495;DHT22;10909;53.590;10.054;2023-04-25T15:11:49;16.30;45.90
21495;DHT22;10909;53.590;10.054;2023-04-25T15:14:20;16.00;46.40
21495;DHT22;10909;53.590;10.054;2023-04-25T15:16:57;15.60;47.60
21495;DHT22;10909;53.590;10.054;2023-04-25T15:19:27;15.40;49.70
21495;DHT22;10909;53.590;10.054;2023-04-25T15:24:27;15.40;50.60
21495;DHT22;10909;53.590;10.054;2023-04-25T15:26:56;15.40;50.70
21495;DHT22;10909;53.590;10.054;2023-04-25T15:29:27;15.50;51.40
21495;DHT22;10909;53.590;10.054;2023-04-25T15:32:05;15.60;50.80
21495;DHT22;10909;53.590;10.054;2023-04-25T15:34:35;15.70;50.50
21495;DHT22;10909;53.590;10.054;2023-04-25T15:37:01;15.80;50.40
21495;DHT22;10909;53.590;10.054;2023-04-25T15:39:26;15.70;49.30
21495;DHT22;10909;53.590;10.054;2023-04-25T15:41:52;15.60;49.80
21495;DHT22;10909;53.590;10.054;2023-04-25T15:44:18;15.50;49.60
21495;DHT22;10909;53.590;10.054;2023-04-25T15:46:43;15.60;50.50
21495;DHT22;10909;53.590;10.054;2023-04-25T15:49:10;15.70;51.30
21495;DHT22;10909;53.590;10.054;2023-04-25T15:51:38;16.00;50.50
21495;DHT22;10909;53.590;10.054;2023-04-25T15:54:04;16.00;49.80
21495;DHT22;10909;53.590;10.054;2023-04-25T15:56:30;16.20;50.10
21495;DHT22;10909;53.590;10.054;2023-04-25T15:59:00;16.30;49.80